createdAt,value
2023-04-24T00:01:22.629Z,97903.98
2023-04-24T00:06:23.990Z,97905.20
2023-04-24T00:11:25.268Z,97897.48
2023-04-24T00:16:26.336Z,97893.30
2023-04-24T00:21:27.460Z,97886.76
2023-04-24T00:26:28.718Z,97876.27
2023-04-24T00:31:29.769Z,97873.35
2023-04-24T00:36:31.473Z,97868.42
2023-04-24T00:41:32.862Z,97860.96
2023-04-24T00:46:33.991Z,97857.27
2023-04-24T00:51:35.059Z,97856.74
2023-04-24T00:56:36.407Z,97849.60
2023-04-24T01:01:42.336Z,97847.63
2023-04-24T01:06:45.946Z,97844.80
2023-04-24T01:11:47.351Z,97841.86
2023-04-24T01:16:48.340Z,97836.94
2023-04-24T01:21:51.765Z,97839.76
2023-04-24T01:26:52.884Z,97834.41
2023-04-24T01:31:55.550Z,97829.75
2023-04-24T01:36:56.915Z,97823.73
2023-04-24T01:41:58.049Z,97825.70
2023-04-24T01:47:01.224Z,97823.55
2023-04-24T01:52:02.555Z,97819.13
2023-04-24T01:57:05.944Z,97816.70
2023-04-24T02:02:07.814Z,97817.25
2023-04-24T02:07:10.628Z,97811.65
2023-04-24T02:12:11.717Z,97805.09
2023-04-24T02:17:13.678Z,97800.21
2023-04-24T02:22:14.824Z,97797.02
2023-04-24T02:27:15.855Z,97795.23
2023-04-24T02:32:17.095Z,97797.92
2023-04-24T02:37:18.177Z,97795.55
2023-04-24T02:42:19.155Z,97791.12
2023-04-24T02:47:20.373Z,97793.39
2023-04-24T02:52:24.439Z,97794.95
2023-04-24T02:57:25.468Z,97795.23
2023-04-24T03:02:26.732Z,97793.76
2023-04-24T03:07:27.997Z,97792.09
2023-04-24T03:12:29.040Z,97788.67
2023-04-24T03:17:30.316Z,97791.14
2023-04-24T03:22:32.958Z,97786.07
2023-04-24T03:27:35.467Z,97785.27
2023-04-24T03:32:41.175Z,97779.88
2023-04-24T03:37:43.780Z,97781.20
2023-04-24T03:43:07.598Z,97777.79
2023-04-24T03:48:09.423Z,97778.00
2023-04-24T03:53:11.918Z,97772.02
2023-04-24T03:58:14.937Z,97770.39
2023-04-24T04:03:16.793Z,97774.09
2023-04-24T04:08:18.487Z,97770.91
2023-04-24T04:13:19.640Z,97774.13
2023-04-24T04:18:21.155Z,97776.31
2023-04-24T04:23:23.186Z,97775.05
2023-04-24T04:28:56.471Z,97771.20
2023-04-24T04:33:58.812Z,97771.85
2023-04-24T04:39:00.044Z,97772.34
2023-04-24T04:44:16.611Z,97771.00
2023-04-24T04:49:19.085Z,97770.72
2023-04-24T04:54:20.256Z,97763.73
2023-04-24T04:59:21.559Z,97774.54
2023-04-24T05:04:24.972Z,97771.34
2023-04-24T05:09:27.646Z,97772.90
2023-04-24T05:14:32.278Z,97773.64
2023-04-24T05:19:36.274Z,97769.98
2023-04-24T05:24:38.132Z,97764.48
2023-04-24T05:30:02.200Z,97764.11
2023-04-24T05:35:04.584Z,97766.76
2023-04-24T05:40:06.345Z,97767.34
2023-04-24T05:45:08.287Z,97761.81
2023-04-24T05:50:11.102Z,97756.62
2023-04-24T05:55:12.736Z,97751.39
2023-04-24T06:00:14.530Z,97757.43
2023-04-24T06:05:19.311Z,97756.59
2023-04-24T06:10:20.687Z,97752.06
2023-04-24T06:15:22.396Z,97742.75
2023-04-24T06:20:43.758Z,97742.98
2023-04-24T06:25:44.879Z,97739.00
2023-04-24T06:30:46.540Z,97736.13
2023-04-24T06:35:48.122Z,97737.13
2023-04-24T06:40:49.270Z,97734.29
2023-04-24T06:45:50.393Z,97732.70
2023-04-24T06:50:51.955Z,97727.09
2023-04-24T06:55:52.988Z,97728.67
2023-04-24T07:00:54.089Z,97725.69
2023-04-24T07:05:55.602Z,97728.42
2023-04-24T07:10:57.497Z,97727.95
2023-04-24T07:15:58.579Z,97722.38
2023-04-24T07:20:59.627Z,97724.65
2023-04-24T07:26:00.720Z,97718.23
2023-04-24T07:31:01.715Z,97718.25
2023-04-24T07:36:02.943Z,97717.56
2023-04-24T07:41:03.958Z,97715.70
2023-04-24T07:46:07.104Z,97718.46
2023-04-24T07:51:11.322Z,97713.05
2023-04-24T07:56:12.395Z,97699.03
2023-04-24T08:01:14.042Z,97700.98
2023-04-24T08:06:15.562Z,97701.95
2023-04-24T08:11:16.848Z,97703.98
2023-04-24T08:16:18.145Z,97697.30
2023-04-24T08:21:20.139Z,97699.39
2023-04-24T08:26:21.241Z,97694.83
2023-04-24T08:31:23.080Z,97698.54
2023-04-24T08:36:26.503Z,97693.71
2023-04-24T08:41:34.953Z,97691.30
2023-04-24T08:46:37.372Z,97681.46
2023-04-24T08:51:40.128Z,97678.36
2023-04-24T08:56:44.417Z,97668.76
2023-04-24T09:01:48.771Z,97670.24
2023-04-24T09:06:51.120Z,97670.05
2023-04-24T09:11:55.915Z,97676.62
2023-04-24T09:16:57.370Z,97680.39
2023-04-24T09:21:58.473Z,97676.41
2023-04-24T09:27:01.758Z,97674.69
2023-04-24T09:32:21.828Z,97667.90
2023-04-24T09:37:30.188Z,97664.13
2023-04-24T09:42:32.416Z,97654.17
2023-04-24T09:47:40.663Z,97649.88
2023-04-24T09:52:43.761Z,97643.51
2023-04-24T09:57:49.705Z,97653.69
2023-04-24T10:03:01.096Z,97653.87
2023-04-24T10:08:05.454Z,97652.91
2023-04-24T10:13:10.090Z,97650.48
2023-04-24T10:18:12.012Z,97647.46
2023-04-24T10:23:13.473Z,97650.02
2023-04-24T10:28:15.374Z,97649.02
2023-04-24T10:33:17.734Z,97648.34
2023-04-24T10:38:28.034Z,97648.83
2023-04-24T10:43:29.061Z,97654.86
2023-04-24T10:48:31.027Z,97653.70
2023-04-24T10:53:35.303Z,97658.70
2023-04-24T10:58:48.403Z,97641.91
2023-04-24T11:03:57.070Z,97656.95
2023-04-24T11:09:06.468Z,97658.96
2023-04-24T11:14:08.531Z,97661.73
2023-04-24T11:19:20.894Z,97660.39
2023-04-24T11:24:32.218Z,97667.13
2023-04-24T11:29:52.022Z,97666.20
2023-04-24T11:34:56.244Z,97671.15
2023-04-24T11:39:59.158Z,97673.41
2023-04-24T11:45:02.484Z,97678.43
2023-04-24T11:50:06.723Z,97677.58
2023-04-24T11:55:23.040Z,97678.52
2023-04-24T12:00:26.990Z,97673.15
2023-04-24T12:05:28.525Z,97673.59
2023-04-24T12:10:31.899Z,97673.66
2023-04-24T12:15:33.254Z,97672.47
2023-04-24T12:20:35.846Z,97674.13
2023-04-24T12:25:39.077Z,97665.38
2023-04-24T12:30:45.099Z,97658.39
2023-04-24T12:35:46.570Z,97661.42
2023-04-24T12:40:47.570Z,97665.20
2023-04-24T12:45:49.230Z,97666.44
2023-04-24T12:50:50.776Z,97659.23
2023-04-24T12:55:53.154Z,97661.84
2023-04-24T13:00:54.564Z,97658.10
2023-04-24T13:05:56.289Z,97657.45
2023-04-24T13:10:57.442Z,97651.80
2023-04-24T13:15:58.436Z,97654.16
2023-04-24T13:20:59.853Z,97655.84
2023-04-24T13:26:01.611Z,97649.31
2023-04-24T13:31:02.575Z,97646.29
2023-04-24T13:36:03.575Z,97645.79
2023-04-24T13:41:04.669Z,97640.30
2023-04-24T13:46:05.618Z,97637.51
2023-04-24T13:51:06.617Z,97631.00
2023-04-24T13:56:08.104Z,97625.68
2023-04-24T14:01:09.385Z,97626.00
2023-04-24T14:06:11.689Z,97624.27
2023-04-24T14:11:13.562Z,97617.66
2023-04-24T14:16:15.529Z,97612.28
2023-04-24T14:21:24.400Z,97613.67
2023-04-24T14:26:26.285Z,97614.20
2023-04-24T14:31:52.858Z,97617.91
2023-04-24T14:36:55.528Z,97617.61
2023-04-24T14:41:56.987Z,97618.67
2023-04-24T14:46:59.070Z,97614.55
2023-04-24T14:52:04.770Z,97619.80
2023-04-24T14:57:06.878Z,97617.34
2023-04-24T15:02:16.019Z,97614.68
2023-04-24T15:07:18.456Z,97615.69
2023-04-24T15:12:19.558Z,97611.00
2023-04-24T15:17:20.647Z,97607.65
2023-04-24T15:22:21.703Z,97608.66
2023-04-24T15:27:22.729Z,97613.84
2023-04-24T15:32:23.912Z,97596.39
2023-04-24T15:37:25.130Z,97625.84
2023-04-24T15:42:26.927Z,97626.96
2023-04-24T15:47:28.067Z,97630.86
2023-04-24T15:52:29.095Z,97626.93
2023-04-24T15:57:30.123Z,97633.98
2023-04-24T16:02:31.259Z,97631.46
2023-04-24T16:07:33.687Z,97638.13
2023-04-24T16:12:34.838Z,97640.47
2023-04-24T16:17:36.009Z,97634.21
2023-04-24T16:22:38.602Z,97633.77
2023-04-24T16:27:39.894Z,97633.56
2023-04-24T16:32:40.856Z,97632.41
2023-04-24T16:37:42.016Z,97635.50
2023-04-24T16:42:42.985Z,97631.85
2023-04-24T16:47:44.069Z,97632.48
2023-04-24T16:52:45.150Z,97627.72
2023-04-24T16:57:46.219Z,97626.25
2023-04-24T17:02:49.693Z,97628.80
2023-04-24T17:07:50.946Z,97629.19
2023-04-24T17:12:51.972Z,97629.44
2023-04-24T17:17:53.268Z,97630.45
2023-04-24T17:22:54.252Z,97629.55
2023-04-24T17:27:55.270Z,97634.59
2023-04-24T17:32:56.364Z,97637.73
2023-04-24T17:37:57.809Z,97640.86
2023-04-24T17:42:58.832Z,97648.66
2023-04-24T17:48:00.097Z,97653.73
2023-04-24T17:53:01.224Z,97658.67
2023-04-24T17:58:02.856Z,97662.33
2023-04-24T18:03:06.049Z,97664.59
2023-04-24T18:08:11.647Z,97669.39
2023-04-24T18:13:12.812Z,97676.59
2023-04-24T18:18:14.838Z,97686.24
2023-04-24T18:23:15.862Z,97689.89
2023-04-24T18:28:16.872Z,97691.81
2023-04-24T18:33:18.429Z,97694.05
2023-04-24T18:38:19.800Z,97700.50
2023-04-24T18:43:21.067Z,97703.36
2023-04-24T18:48:22.065Z,97705.61
2023-04-24T18:53:23.575Z,97710.54
2023-04-24T18:58:24.646Z,97716.21
2023-04-24T19:03:25.623Z,97715.66
2023-04-24T19:08:28.215Z,97716.29
2023-04-24T19:14:08.515Z,97715.42
2023-04-24T19:19:14.353Z,97718.80
2023-04-24T19:24:19.098Z,97716.25
2023-04-24T19:29:20.351Z,97715.11
2023-04-24T19:34:21.324Z,97712.95
2023-04-24T19:39:22.646Z,97711.27
2023-04-24T19:44:24.625Z,97712.14
2023-04-24T19:49:25.820Z,97714.08
2023-04-24T19:54:27.225Z,97715.51
2023-04-24T19:59:28.331Z,97718.23
2023-04-24T20:04:29.472Z,97720.83
2023-04-24T20:09:32.953Z,97722.40
2023-04-24T20:14:34.171Z,97724.63
2023-04-24T20:19:35.434Z,97725.51
2023-04-24T20:24:37.106Z,97728.83
2023-04-24T20:29:38.526Z,97729.83
2023-04-24T20:34:39.607Z,97734.32
2023-04-24T20:39:40.714Z,97743.23
2023-04-24T20:44:41.910Z,97746.70
2023-04-24T20:49:42.896Z,97750.88
2023-04-24T20:54:43.936Z,97764.58
2023-04-24T20:59:44.986Z,97768.65
2023-04-24T21:04:46.404Z,97769.44
2023-04-24T21:09:48.103Z,97771.23
2023-04-24T21:15:10.782Z,97774.90
2023-04-24T21:20:12.108Z,97778.90
2023-04-24T21:25:13.305Z,97778.99
2023-04-24T21:30:14.570Z,97777.48
2023-04-24T21:35:22.169Z,97774.73
2023-04-24T21:40:25.722Z,97774.52
2023-04-24T21:45:27.340Z,97775.23
2023-04-24T21:50:29.988Z,97779.31
2023-04-24T21:55:31.132Z,97781.06
2023-04-24T22:00:33.454Z,97783.99
2023-04-24T22:05:35.329Z,97782.09
2023-04-24T22:10:37.323Z,97780.75
2023-04-24T22:15:38.556Z,97774.63
2023-04-24T22:20:39.634Z,97779.27
2023-04-24T22:25:40.839Z,97777.88
2023-04-24T22:30:42.271Z,97773.23
2023-04-24T22:35:43.418Z,97773.41
2023-04-24T22:40:44.443Z,97780.81
2023-04-24T22:45:45.432Z,97775.91
2023-04-24T22:50:46.523Z,97776.64
2023-04-24T22:55:48.139Z,97776.70
2023-04-24T23:00:49.382Z,97775.15
2023-04-24T23:05:50.560Z,97770.14
2023-04-24T23:10:56.756Z,97763.92
2023-04-24T23:16:04.420Z,97763.52
2023-04-24T23:21:06.066Z,97760.46
2023-04-24T23:26:07.171Z,97761.96
2023-04-24T23:31:08.258Z,97763.64
2023-04-24T23:36:09.385Z,97759.05
2023-04-24T23:41:11.343Z,97765.02
2023-04-24T23:46:19.685Z,97768.13
2023-04-24T23:51:22.645Z,97767.64
2023-04-24T23:56:25.987Z,97771.12
